createdAt,value
2018-07-21T00:02:03.369Z,17.20
2018-07-21T00:04:31.877Z,16.80
2018-07-21T00:07:00.199Z,16.30
2018-07-21T00:09:28.605Z,16.60
2018-07-21T00:11:57.035Z,16.50
2018-07-21T00:14:25.774Z,16.60
2018-07-21T00:16:54.091Z,16.20
2018-07-21T00:19:22.537Z,16.70
2018-07-21T00:21:51.048Z,17.20
2018-07-21T00:26:49.352Z,16.00
2018-07-21T00:29:19.427Z,16.50
2018-07-21T00:31:47.741Z,16.50
2018-07-21T00:34:16.309Z,16.80
2018-07-21T00:36:44.690Z,16.80
2018-07-21T00:39:15.151Z,17.10
2018-07-21T00:41:43.977Z,17.20
2018-07-21T00:44:12.464Z,17.20
2018-07-21T00:46:40.930Z,17.40
2018-07-21T00:49:09.567Z,18.10
2018-07-21T00:51:37.871Z,18.60
2018-07-21T00:54:06.194Z,19.10
2018-07-21T00:56:34.611Z,19.60
2018-07-21T00:59:03.047Z,20.10
2018-07-21T01:01:31.444Z,20.50
2018-07-21T01:03:59.822Z,20.90
2018-07-21T01:06:28.277Z,21.20
2018-07-21T01:08:56.636Z,21.60
2018-07-21T01:11:25.168Z,22.00
2018-07-21T01:13:53.739Z,21.60
2018-07-21T01:16:22.248Z,22.80
2018-07-21T01:18:50.914Z,22.50
2018-07-21T01:21:19.418Z,22.80
2018-07-21T01:23:47.823Z,23.70
2018-07-21T01:26:16.172Z,23.80
2018-07-21T01:28:44.657Z,23.70
2018-07-21T01:31:13.030Z,24.40
2018-07-21T01:33:41.428Z,25.00
2018-07-21T01:36:09.734Z,25.30
2018-07-21T01:38:38.089Z,25.20
2018-07-21T01:41:06.476Z,25.60
2018-07-21T01:43:35.085Z,26.10
2018-07-21T01:46:03.574Z,26.30
2018-07-21T01:48:31.957Z,27.10
2018-07-21T01:51:00.464Z,26.80
2018-07-21T01:53:28.820Z,28.00
2018-07-21T01:55:57.192Z,27.90
2018-07-21T01:58:25.641Z,28.40
2018-07-21T02:00:54.055Z,28.90
2018-07-21T02:03:22.477Z,29.60
2018-07-21T02:05:50.914Z,29.70
2018-07-21T02:08:19.296Z,30.10
2018-07-21T02:10:47.640Z,31.00
2018-07-21T02:13:16.077Z,31.00
2018-07-21T02:15:44.529Z,31.40
2018-07-21T02:18:12.875Z,32.00
2018-07-21T02:20:41.456Z,32.50
2018-07-21T02:23:09.862Z,33.10
2018-07-21T02:25:38.572Z,33.60
2018-07-21T02:28:07.144Z,33.60
2018-07-21T02:30:35.573Z,34.20
2018-07-21T02:33:07.121Z,34.20
2018-07-21T02:35:35.935Z,33.50
2018-07-21T02:38:04.268Z,33.40
2018-07-21T02:40:32.966Z,33.30
2018-07-21T02:43:01.354Z,32.70
2018-07-21T02:45:29.799Z,32.60
2018-07-21T02:47:58.175Z,33.00
2018-07-21T02:50:26.473Z,33.10
2018-07-21T02:52:54.931Z,33.60
2018-07-21T02:55:23.333Z,33.50
2018-07-21T03:00:19.838Z,34.00
2018-07-21T03:02:48.241Z,34.00
2018-07-21T03:05:16.598Z,34.10
2018-07-21T03:10:13.193Z,34.10
2018-07-21T03:12:41.670Z,34.00
2018-07-21T03:15:10.153Z,34.10
2018-07-21T03:17:38.537Z,34.00
2018-07-21T03:20:07.908Z,35.00
2018-07-21T03:22:36.449Z,35.90
2018-07-21T03:25:04.834Z,36.30
2018-07-21T03:27:33.183Z,35.10
2018-07-21T03:30:01.585Z,35.20
2018-07-21T03:32:30.032Z,33.90
2018-07-21T03:34:58.398Z,34.50
2018-07-21T03:37:26.861Z,35.70
2018-07-21T03:39:55.220Z,38.60
2018-07-21T03:42:23.589Z,41.60
2018-07-21T03:44:52.195Z,43.30
2018-07-21T03:47:20.618Z,45.10
2018-07-21T03:49:49.120Z,47.10
2018-07-21T03:52:17.629Z,47.40
2018-07-21T03:54:45.969Z,50.30
2018-07-21T03:57:14.399Z,52.20
2018-07-21T03:59:42.829Z,54.40
2018-07-21T04:02:11.566Z,54.80
2018-07-21T04:04:40.090Z,55.00
2018-07-21T04:07:08.736Z,55.30
2018-07-21T04:09:37.126Z,54.80
2018-07-21T04:12:05.488Z,55.10
2018-07-21T04:14:34.341Z,55.20
2018-07-21T04:17:02.825Z,55.70
2018-07-21T04:19:31.249Z,56.10
2018-07-21T04:21:59.661Z,56.20
2018-07-21T04:24:28.030Z,56.50
2018-07-21T04:26:56.473Z,57.20
2018-07-21T04:29:25.114Z,57.30
2018-07-21T04:31:53.490Z,57.70
2018-07-21T04:34:21.859Z,57.70
2018-07-21T04:36:50.228Z,58.20
2018-07-21T04:39:18.633Z,57.40
2018-07-21T04:41:48.727Z,57.00
2018-07-21T04:44:17.063Z,57.60
2018-07-21T04:46:45.430Z,57.80
2018-07-21T04:49:14.034Z,57.50
2018-07-21T04:51:45.854Z,58.50
2018-07-21T04:54:14.125Z,59.00
2018-07-21T04:56:42.575Z,58.70
2018-07-21T04:59:10.916Z,58.70
2018-07-21T05:01:40.029Z,57.80
2018-07-21T05:04:08.720Z,57.70
2018-07-21T05:06:37.216Z,57.60
2018-07-21T05:09:08.083Z,57.40
2018-07-21T05:11:36.648Z,57.40
2018-07-21T05:14:05.375Z,57.50
2018-07-21T05:16:34.032Z,57.50
2018-07-21T05:19:02.776Z,56.70
2018-07-21T05:21:31.237Z,56.60
2018-07-21T05:23:59.699Z,56.70
2018-07-21T05:26:28.173Z,56.10
2018-07-21T05:28:56.594Z,55.80
2018-07-21T05:31:26.063Z,55.70
2018-07-21T05:33:54.478Z,54.90
2018-07-21T05:36:22.962Z,54.90
2018-07-21T05:38:51.434Z,53.60
2018-07-21T05:41:19.868Z,52.70
2018-07-21T05:43:48.328Z,53.20
2018-07-21T05:46:16.812Z,52.50
2018-07-21T05:48:45.475Z,52.40
2018-07-21T05:51:14.304Z,51.90
2018-07-21T05:56:11.910Z,50.70
2018-07-21T05:58:40.300Z,49.00
2018-07-21T06:01:08.730Z,48.30
2018-07-21T06:03:37.218Z,47.90
2018-07-21T06:06:05.724Z,47.60
2018-07-21T06:08:34.187Z,47.50
2018-07-21T06:11:02.809Z,47.10
2018-07-21T06:13:31.521Z,47.30
2018-07-21T06:15:59.921Z,46.00
2018-07-21T06:18:28.319Z,44.20
2018-07-21T06:20:56.754Z,42.70
2018-07-21T06:23:25.255Z,43.40
2018-07-21T06:25:53.687Z,44.80
2018-07-21T06:28:22.187Z,45.80
2018-07-21T06:30:51.632Z,46.00
2018-07-21T06:35:48.673Z,44.30
2018-07-21T06:38:18.214Z,43.30
2018-07-21T06:40:47.154Z,42.70
2018-07-21T06:43:15.890Z,42.60
2018-07-21T06:45:45.416Z,42.80
2018-07-21T06:48:14.374Z,42.00
2018-07-21T06:50:42.913Z,40.80
2018-07-21T06:53:11.471Z,39.70
2018-07-21T06:55:39.922Z,39.50
2018-07-21T06:58:08.358Z,38.60
2018-07-21T07:00:36.897Z,36.60
2018-07-21T07:03:05.394Z,37.00
2018-07-21T07:05:34.158Z,35.20
2018-07-21T07:08:02.866Z,33.20
2018-07-21T07:10:31.524Z,32.30
2018-07-21T07:13:00.364Z,32.60
2018-07-21T07:15:28.890Z,33.10
2018-07-21T07:17:57.787Z,32.80
2018-07-21T07:20:26.686Z,32.90
2018-07-21T07:22:56.027Z,32.40
2018-07-21T07:25:24.533Z,32.10
2018-07-21T07:27:53.051Z,31.30
2018-07-21T07:30:21.545Z,30.40
2018-07-21T07:32:50.130Z,29.80
2018-07-21T07:35:18.666Z,29.50
2018-07-21T07:37:47.220Z,29.30
2018-07-21T07:42:43.810Z,28.40
2018-07-21T07:45:12.349Z,27.00
2018-07-21T07:47:41.100Z,27.10
2018-07-21T07:50:09.710Z,27.10
2018-07-21T07:52:38.459Z,26.20
2018-07-21T07:55:07.301Z,26.30
2018-07-21T07:57:35.777Z,27.00
2018-07-21T08:00:05.091Z,25.90
2018-07-21T08:02:34.196Z,25.10
2018-07-21T08:05:03.011Z,24.90
2018-07-21T08:07:31.534Z,24.90
2018-07-21T08:10:00.853Z,23.90
2018-07-21T08:12:29.376Z,23.40
2018-07-21T08:14:58.287Z,22.70
2018-07-21T08:17:26.784Z,22.60
2018-07-21T08:19:55.294Z,23.10
2018-07-21T08:22:23.949Z,23.30
2018-07-21T08:24:52.593Z,22.90
2018-07-21T08:27:21.225Z,22.10
2018-07-21T08:29:50.218Z,20.80
2018-07-21T08:32:18.643Z,20.90
2018-07-21T08:34:47.242Z,21.50
2018-07-21T08:37:16.079Z,21.60
2018-07-21T08:39:44.804Z,20.90
2018-07-21T08:42:13.206Z,20.50
2018-07-21T08:44:41.724Z,21.00
2018-07-21T08:47:10.529Z,21.10
2018-07-21T08:49:40.252Z,21.00
2018-07-21T08:52:09.158Z,21.40
2018-07-21T08:54:37.590Z,20.90
2018-07-21T08:57:06.300Z,20.70
2018-07-21T08:59:34.809Z,20.60
2018-07-21T09:02:03.283Z,20.40
2018-07-21T09:04:31.784Z,18.50
2018-07-21T09:07:00.750Z,18.40
2018-07-21T09:09:29.309Z,17.30
2018-07-21T09:11:58.337Z,16.30
2018-07-21T09:14:26.836Z,16.60
2018-07-21T09:16:55.948Z,16.30
2018-07-21T09:19:25.547Z,15.90
2018-07-21T09:21:54.246Z,16.20
2018-07-21T09:24:23.674Z,15.00
2018-07-21T09:26:52.289Z,13.90
2018-07-21T09:29:20.864Z,12.10
2018-07-21T09:31:49.835Z,12.20
2018-07-21T09:34:18.549Z,12.20
2018-07-21T09:36:47.595Z,12.20
2018-07-21T09:39:16.077Z,12.20
2018-07-21T09:41:44.429Z,12.30
2018-07-21T09:44:13.078Z,12.00
2018-07-21T09:46:41.671Z,11.60
2018-07-21T09:49:10.182Z,12.10
2018-07-21T09:51:38.653Z,11.60
2018-07-21T09:54:07.161Z,11.70
2018-07-21T09:56:35.729Z,11.60
2018-07-21T09:59:04.297Z,11.00
2018-07-21T10:01:32.779Z,10.90
2018-07-21T10:04:01.153Z,9.80
2018-07-21T10:06:29.728Z,9.00
2018-07-21T10:08:58.382Z,9.40
2018-07-21T10:11:26.847Z,9.10
2018-07-21T10:13:55.365Z,7.50
2018-07-21T10:16:23.897Z,7.40
2018-07-21T10:18:52.278Z,5.90
2018-07-21T10:21:20.793Z,6.30
2018-07-21T10:23:51.227Z,6.20
2018-07-21T10:26:24.792Z,4.80
2018-07-21T10:28:57.681Z,6.00
2018-07-21T10:31:26.132Z,5.30
2018-07-21T10:33:54.989Z,4.50
2018-07-21T10:36:24.276Z,5.50
2018-07-21T10:38:54.206Z,6.30
2018-07-21T10:41:22.757Z,4.50
2018-07-21T10:43:51.129Z,2.90
2018-07-21T10:46:20.124Z,1.00
2018-07-21T10:48:48.573Z,1.00
2018-07-21T10:51:17.032Z,1.00
2018-07-21T10:53:45.425Z,1.20
2018-07-21T10:56:13.871Z,1.10
2018-07-21T10:58:42.299Z,1.00
2018-07-21T11:01:10.776Z,1.00
2018-07-21T11:03:39.452Z,1.00
2018-07-21T11:06:09.157Z,1.00
2018-07-21T11:08:37.723Z,1.00
2018-07-21T11:11:06.423Z,1.00
2018-07-21T11:13:34.904Z,1.00
2018-07-21T11:16:03.397Z,1.00
2018-07-21T11:18:32.336Z,1.00
2018-07-21T11:21:00.656Z,1.00
2018-07-21T11:23:29.213Z,1.00
2018-07-21T11:25:57.719Z,1.00
2018-07-21T11:28:28.251Z,1.00
2018-07-21T11:30:56.731Z,1.00
2018-07-21T11:33:25.120Z,1.00
2018-07-21T11:35:53.720Z,1.00
2018-07-21T11:38:23.043Z,1.00
2018-07-21T11:40:51.453Z,1.00
2018-07-21T11:43:20.994Z,1.00
2018-07-21T11:45:49.473Z,1.00
2018-07-21T11:48:17.864Z,2.00
2018-07-21T11:50:46.325Z,3.70
2018-07-21T11:53:14.734Z,4.30
2018-07-21T11:55:43.220Z,3.00
2018-07-21T11:58:11.664Z,2.60
2018-07-21T12:00:40.093Z,1.90
2018-07-21T12:03:08.529Z,1.10
2018-07-21T12:05:37.003Z,1.00
2018-07-21T12:08:05.402Z,1.00
2018-07-21T12:10:33.742Z,1.00
2018-07-21T12:13:02.271Z,1.00
2018-07-21T12:15:30.613Z,1.00
2018-07-21T12:17:59.034Z,1.00
2018-07-21T12:20:27.474Z,1.30
2018-07-21T12:22:56.179Z,1.00
2018-07-21T12:25:24.722Z,1.00
2018-07-21T12:27:53.190Z,1.00
2018-07-21T12:30:21.618Z,1.00
2018-07-21T12:35:18.785Z,1.00
2018-07-21T12:37:47.184Z,1.00
2018-07-21T12:40:15.718Z,1.00
2018-07-21T12:42:44.492Z,1.00
2018-07-21T12:45:12.990Z,1.00
2018-07-21T12:47:41.682Z,1.00
2018-07-21T12:50:10.347Z,1.00
2018-07-21T12:52:38.984Z,1.00
2018-07-21T12:55:07.345Z,1.00
2018-07-21T12:57:36.308Z,1.00
2018-07-21T13:00:05.577Z,1.00
2018-07-21T13:02:34.146Z,1.00
2018-07-21T13:05:02.752Z,1.00
2018-07-21T13:07:31.360Z,1.00
2018-07-21T13:09:59.953Z,1.00
2018-07-21T13:12:28.466Z,1.20
2018-07-21T13:14:57.450Z,1.10
2018-07-21T13:17:26.043Z,1.20
2018-07-21T13:19:54.719Z,1.00
2018-07-21T13:22:25.231Z,1.00
2018-07-21T13:24:53.741Z,1.00
2018-07-21T13:27:22.279Z,1.00
2018-07-21T13:29:50.779Z,1.00
2018-07-21T13:32:19.370Z,1.00
2018-07-21T13:34:48.083Z,1.00
2018-07-21T13:37:16.651Z,1.00
2018-07-21T13:39:45.173Z,1.30
2018-07-21T13:42:13.668Z,1.70
2018-07-21T13:44:42.995Z,1.60
2018-07-21T13:47:11.391Z,1.50
2018-07-21T13:49:39.883Z,2.30
2018-07-21T13:52:08.564Z,2.00
2018-07-21T13:54:36.984Z,1.50
2018-07-21T13:57:05.438Z,1.60
2018-07-21T13:59:33.876Z,2.50
2018-07-21T14:02:02.370Z,3.70
2018-07-21T14:04:30.838Z,3.50
2018-07-21T14:06:59.888Z,3.40
2018-07-21T14:09:29.014Z,3.80
2018-07-21T14:11:57.469Z,3.30
2018-07-21T14:14:25.943Z,3.80
2018-07-21T14:16:54.430Z,4.20
2018-07-21T14:19:22.925Z,4.50
2018-07-21T14:21:51.609Z,4.20
2018-07-21T14:24:20.403Z,5.20
2018-07-21T14:26:48.972Z,5.00
2018-07-21T14:29:17.557Z,5.60
2018-07-21T14:31:46.936Z,5.90
2018-07-21T14:34:15.637Z,6.20
2018-07-21T14:36:44.777Z,6.50
2018-07-21T14:39:13.894Z,7.20
2018-07-21T14:41:42.268Z,7.50
2018-07-21T14:44:10.882Z,7.60
2018-07-21T14:46:39.400Z,8.10
2018-07-21T14:49:07.915Z,8.60
2018-07-21T14:52:32.802Z,8.80
2018-07-21T14:55:02.084Z,9.30
2018-07-21T14:57:31.200Z,9.20
2018-07-21T14:59:59.879Z,10.00
2018-07-21T15:02:28.490Z,10.80
2018-07-21T15:04:56.998Z,11.50
2018-07-21T15:07:25.630Z,11.80
2018-07-21T15:09:54.232Z,12.60
2018-07-21T15:12:23.813Z,12.40
2018-07-21T15:14:52.163Z,12.60
2018-07-21T15:19:49.386Z,11.50
2018-07-21T15:22:18.717Z,11.50
2018-07-21T15:24:47.343Z,10.90
2018-07-21T15:27:16.307Z,11.50
2018-07-21T15:29:44.682Z,11.50
2018-07-21T15:32:13.143Z,11.50
2018-07-21T15:34:42.675Z,11.60
2018-07-21T15:37:11.226Z,11.60
2018-07-21T15:39:39.818Z,12.70
2018-07-21T15:42:08.789Z,13.40
2018-07-21T15:44:37.480Z,14.00
2018-07-21T15:47:05.940Z,14.50
2018-07-21T15:49:34.338Z,15.50
2018-07-21T15:52:02.816Z,17.30
2018-07-21T15:54:31.198Z,18.90
2018-07-21T15:56:59.807Z,21.40
2018-07-21T15:59:28.256Z,23.50
2018-07-21T16:01:57.327Z,24.20
2018-07-21T16:04:25.791Z,24.10
2018-07-21T16:06:54.323Z,24.60
2018-07-21T16:09:22.954Z,24.00
2018-07-21T16:11:51.631Z,23.90
2018-07-21T16:14:20.111Z,24.20
2018-07-21T16:16:48.557Z,24.50
2018-07-21T16:19:17.188Z,25.50
2018-07-21T16:21:45.733Z,26.40
2018-07-21T16:24:14.236Z,27.20
2018-07-21T16:26:43.005Z,29.10
2018-07-21T16:29:11.394Z,31.40
2018-07-21T16:31:39.984Z,37.10
2018-07-21T16:34:08.510Z,43.30
2018-07-21T16:36:37.364Z,50.70
2018-07-21T16:39:09.567Z,64.50
2018-07-21T16:41:38.223Z,75.20
2018-07-21T16:44:07.074Z,88.60
2018-07-21T16:46:35.902Z,91.60
2018-07-21T16:49:04.562Z,92.40
2018-07-21T16:51:33.101Z,93.40
2018-07-21T16:54:01.444Z,94.40
2018-07-21T16:56:30.127Z,94.50
2018-07-21T16:58:58.818Z,95.50
2018-07-21T17:01:27.379Z,96.50
2018-07-21T17:03:56.177Z,97.30
2018-07-21T17:06:25.300Z,97.60
2018-07-21T17:08:56.167Z,97.10
2018-07-21T17:11:25.375Z,96.20
2018-07-21T17:13:54.308Z,96.80
2018-07-21T17:16:23.111Z,97.30
2018-07-21T17:18:51.810Z,96.70
2018-07-21T17:21:21.097Z,96.80
2018-07-21T17:23:49.621Z,97.30
2018-07-21T17:26:29.714Z,97.20
2018-07-21T17:28:59.674Z,96.60
2018-07-21T17:33:58.178Z,97.20
2018-07-21T17:36:26.926Z,97.10
2018-07-21T17:38:56.682Z,96.10
2018-07-21T17:41:25.127Z,95.30
2018-07-21T17:43:54.136Z,95.50
2018-07-21T17:46:23.437Z,95.90
2018-07-21T17:48:53.102Z,96.20
2018-07-21T17:51:21.519Z,97.10
2018-07-21T17:53:50.106Z,97.80
2018-07-21T17:56:18.587Z,98.10
2018-07-21T17:58:47.875Z,97.60
2018-07-21T18:01:17.431Z,97.80
2018-07-21T18:03:46.253Z,98.30
2018-07-21T18:06:15.046Z,98.90
2018-07-21T18:08:44.010Z,98.50
2018-07-21T18:11:15.230Z,98.30
2018-07-21T18:13:45.218Z,98.30
2018-07-21T18:16:14.735Z,98.40
2018-07-21T18:18:45.181Z,98.40
2018-07-21T18:21:14.583Z,98.60
2018-07-21T18:23:44.154Z,99.50
2018-07-21T18:26:13.619Z,99.70
2018-07-21T18:28:43.369Z,99.70
2018-07-21T18:33:46.504Z,99.90
2018-07-21T18:36:17.180Z,99.90
2018-07-21T18:38:50.325Z,99.90
2018-07-21T18:41:20.491Z,99.00
2018-07-21T18:43:51.250Z,98.40
2018-07-21T18:46:22.458Z,98.50
2018-07-21T18:48:51.275Z,98.30
2018-07-21T18:51:21.388Z,97.80
2018-07-21T18:53:52.112Z,98.90
2018-07-21T18:56:21.585Z,98.90
2018-07-21T18:58:50.412Z,98.60
2018-07-21T19:01:21.777Z,98.60
2018-07-21T19:03:52.430Z,98.30
2018-07-21T19:06:23.243Z,98.10
2018-07-21T19:08:56.891Z,98.40
2018-07-21T19:11:26.244Z,98.90
2018-07-21T19:13:55.159Z,99.30
2018-07-21T19:16:29.047Z,99.40
2018-07-21T19:18:57.768Z,99.60
2018-07-21T19:21:28.988Z,99.90
2018-07-21T19:23:59.843Z,99.90
2018-07-21T19:26:34.887Z,99.90
2018-07-21T19:29:06.263Z,99.90
2018-07-21T19:31:35.730Z,99.90
2018-07-21T19:34:04.631Z,99.90
2018-07-21T19:36:34.910Z,99.90
2018-07-21T19:39:06.568Z,99.90
2018-07-21T19:41:41.188Z,99.90
2018-07-21T19:44:11.093Z,99.90
2018-07-21T19:46:43.978Z,99.90
2018-07-21T19:49:12.747Z,99.90
2018-07-21T19:51:42.019Z,99.90
2018-07-21T19:54:12.958Z,99.90
2018-07-21T19:56:41.889Z,99.90
2018-07-21T20:01:38.501Z,99.90
2018-07-21T20:04:06.960Z,99.90
2018-07-21T20:06:35.310Z,99.90
2018-07-21T20:09:04.440Z,99.90
2018-07-21T20:11:33.020Z,99.90
2018-07-21T20:14:01.510Z,99.90
2018-07-21T20:16:30.108Z,99.90
2018-07-21T20:18:58.692Z,99.90
2018-07-21T20:23:55.554Z,99.90
2018-07-21T20:26:24.031Z,99.90
2018-07-21T20:28:52.911Z,99.90
2018-07-21T20:31:21.909Z,99.90
2018-07-21T20:33:51.687Z,99.90
2018-07-21T20:36:20.201Z,99.90
2018-07-21T20:38:49.757Z,99.90
2018-07-21T20:41:18.224Z,99.90
2018-07-21T20:43:46.683Z,99.90
2018-07-21T20:46:15.248Z,99.90
2018-07-21T20:48:43.708Z,99.90
2018-07-21T20:51:12.099Z,99.90
2018-07-21T20:53:40.668Z,99.90
2018-07-21T20:56:10.418Z,99.90
2018-07-21T20:58:41.953Z,99.90
2018-07-21T21:01:12.076Z,99.90
2018-07-21T21:03:45.088Z,99.90
2018-07-21T21:06:14.801Z,99.90
2018-07-21T21:08:44.755Z,99.90
2018-07-21T21:11:14.761Z,99.90
2018-07-21T21:13:44.803Z,99.90
2018-07-21T21:16:15.312Z,99.90
2018-07-21T21:18:46.602Z,99.90
2018-07-21T21:21:16.637Z,99.90
2018-07-21T21:23:45.460Z,99.90
2018-07-21T21:26:13.897Z,99.90
2018-07-21T21:31:10.884Z,99.90
2018-07-21T21:33:39.495Z,99.90
2018-07-21T21:36:08.130Z,99.90
2018-07-21T21:41:05.563Z,99.90
2018-07-21T21:43:34.075Z,99.90
2018-07-21T21:46:02.643Z,99.90
2018-07-21T21:48:30.821Z,99.90
2018-07-21T21:50:59.620Z,99.90
2018-07-21T21:53:28.045Z,99.90
2018-07-21T21:55:56.377Z,99.90
2018-07-21T21:58:24.945Z,99.90
2018-07-21T22:00:59.817Z,99.90
2018-07-21T22:03:30.322Z,99.90
2018-07-21T22:05:59.744Z,99.90
2018-07-21T22:08:28.499Z,99.90
2018-07-21T22:10:57.872Z,99.90
2018-07-21T22:13:27.441Z,99.90
2018-07-21T22:15:55.906Z,99.90
2018-07-21T22:18:24.346Z,99.90
2018-07-21T22:20:52.818Z,99.90
2018-07-21T22:23:21.258Z,99.90
2018-07-21T22:25:49.966Z,99.90
2018-07-21T22:28:18.419Z,99.90
2018-07-21T22:30:47.154Z,99.90
2018-07-21T22:33:15.835Z,99.90
2018-07-21T22:35:44.568Z,99.90
2018-07-21T22:38:13.461Z,99.90
2018-07-21T22:40:42.529Z,99.90
2018-07-21T22:43:11.098Z,99.90
2018-07-21T22:45:39.585Z,99.90
2018-07-21T22:48:08.360Z,99.90
2018-07-21T22:50:36.903Z,99.90
2018-07-21T22:53:06.041Z,99.90
2018-07-21T22:58:02.743Z,99.90
2018-07-21T23:00:32.358Z,99.90
2018-07-21T23:03:00.883Z,99.90
2018-07-21T23:05:29.281Z,99.90
2018-07-21T23:07:57.759Z,99.90
2018-07-21T23:10:26.871Z,99.90
2018-07-21T23:12:55.476Z,99.90
2018-07-21T23:15:24.053Z,99.90
2018-07-21T23:17:52.378Z,99.90
2018-07-21T23:20:20.818Z,99.90
2018-07-21T23:22:49.432Z,99.90
2018-07-21T23:25:17.855Z,99.90
2018-07-21T23:27:46.537Z,99.90
2018-07-21T23:30:15.194Z,99.90
2018-07-21T23:32:43.840Z,99.90
2018-07-21T23:35:12.190Z,99.90
2018-07-21T23:37:40.604Z,99.90
2018-07-21T23:40:09.189Z,99.90
2018-07-21T23:45:06.186Z,99.90
2018-07-21T23:47:34.611Z,99.90
2018-07-21T23:50:03.051Z,99.90
2018-07-21T23:52:31.385Z,99.90
2018-07-21T23:55:00.789Z,99.90
2018-07-21T23:57:29.199Z,99.90
2018-07-21T23:59:57.602Z,99.90
